Airfield :
LOGIN :

Register | Disclaimer

   EN    FR    IT 

 










Legend :    VFR   Marginal VFR   IFR   Intensive IFR   Very Intensive IFR
Visi :
Ceiling :
>= 8 km
>= 3000ft
5 to 8 km
1000 to 3000 ft
1500m to 5 km
500 to 1000 ft
800 to 1500m
200 to 500 ft
< 800m
< 200 ft
Symbols :   Thunderstorms  Fog  Heavy snow  Heavy precipitations  Wind > 20 kt
SIGMETs :     Misc.  Thunderstorms  Icing  Turbulence  Mountain Waves  Volcanic Ashes







- Airport Elevation : 39 ft
- IATA code : ANR


EBAW - Anvers / Antwerpen Deurne

CURRENT METAR :
  • 250620Z 05005KT 020V080 CAVOK 15/12 Q1025 NOSIG

EXPIRED METARs :
  • 250550Z 05005KT 020V080 7000 NSC 14/12 Q1025 NOSIG
  • 250520Z 05003KT 020V080 6000 NSC 13/12 Q1025 NOSIG
  • 250450Z 03003KT 350V050 4700 BR NSC 13/11 Q1025 BECMG 7000 NSW
  • 250420Z 03003KT 4500 BR NSC 13/11 Q1025 BECMG 7000 NSW
  • 250350Z AUTO 02004KT 5000 // NCD 12/11 Q1025

TAF TAF EBAW
Valid from the 25 at 06:00 until the 25 at 15:00 UTC


250500Z 2506/2515 05005KT 4500 BR
BECMG 2506/2508 CAVOK
No reported NOTAMs for that airfield.



MET'MAP, your aeronautical weather chart ! - Copyright ORBIFLY December 2007 - Disclaimer

ORBIFLY MET'MAP TEAM :

Programming & Development : Alexandra Zaïnal
Concept & Development : Baudouin d'Aumeries
Co-Development & Prog : Marc-Olivier Méhu
Technical & hardware support : Manuel Goepfert

Contact : metmap@orbifly.com




SOURCES & CREDITS :

   NOAA